Página principal
METAR-TAF:

METAR-TAF

Aeroportos :

Base aérea

Morón de la Frontera, Espanha

latitude: 37-09N, longitude: 005-37W, altura: 87 m

Observação actual do tempo

O boletim foi feito há 32 minutos, às 12:30 UTC
Vento 5 kt de es-nordeste, variando entre oes-noroeste e es-sudeste
Temperatura 36°C
Humidade 22%
Pressão 1019 hPa
Visibilidade 10 km ou mais
sem nuvens abaixo de 1500 metros e sem cumulonimbus

METAR: LEMO 071230Z 07005KT 300V110 CAVOK 36/11 Q1019 NOSIG

Hora: 15:02 (13:02 UTC)

Previsão

O boletim foi feito há 5 horas e 2 minutos, às 08:00 UTC
Previsão válida de 07 às 09 UTC a 08 às 09 UTC
Vento 4 kt de nor-noroeste
Visibilidade 10 km ou mais
sem nuvens abaixo de 1500 metros e sem cumulonimbus
Tornando-se
de 07 às 16 UTC a 07 às 19 UTC
Vento 11 kt de oes-sudoeste
Tornando-se
de 08 às 00 UTC a 08 às 02 UTC
Vento 2 kt com direcção variável

TAF: LEMO 070800Z 0709/0809 33004KT CAVOK TX39/0716Z TN20/0805Z BECMG 0716/0719 24011KT BECMG 0800/0802 VRB02KT

Observações e previsões do tempo de mais de 4000 aeroportos (mensagens METAR e TAF).

As estações disponíveis são os pontos amarelos e vermelhos sobre o mapa.

Mova o rato sobre o mapa para ver o nome da estação.

Depois clique no ponto para visualizar as observações e previsões meteorológicas.

Para alterar o mapa : clique nos botões verdes com uma cruz preta para aumentar o zoom; no botão verde com uma pitada de zoom; ou nas setas verdes para mapas adjacentes.


METAR-TAF: